Time,TemperatureF,DewpointF,PressureIn,WindDirection,WindDirectionDegrees,WindSpeedMPH,WindSpeedGustMPH,Humidity,HourlyPrecipIn,Conditions,Clouds,dailyrainin,SolarRadiationWatts/m^2,SoftwareType,DateUTC
2013-01-24 00:10:00,29.0,18.0,-100.00,WNW,290,5.0,7.0,63,-99.99,,,-99.99,0.000000,,2013-01-24 07:10:00,
2013-01-24 00:11:00,29.0,19.0,-100.00,West,280,5.0,5.0,64,-99.99,,,-99.99,0.000000,,2013-01-24 07:11:00,
2013-01-24 00:32:00,29.0,18.0,-100.00,WNW,290,5.0,7.0,63,-99.99,,,-99.99,0.000000,,2013-01-24 07:32:00,
2013-01-24 00:42:00,29.0,18.0,-100.00,WNW,290,5.0,7.0,63,-99.99,,,-99.99,0.000000,,2013-01-24 07:42:00,
2013-01-24 00:52:00,29.0,18.0,-100.00,WNW,290,5.0,7.0,63,-99.99,,,-99.99,0.000000,,2013-01-24 07:52:00,
2013-01-24 01:02:00,29.0,18.0,-100.00,WNW,290,5.0,7.0,63,-99.99,,,-99.99,0.000000,,2013-01-24 08:02:00,
2013-01-24 04:02:00,28.0,20.0,-100.00,West,277,4.0,5.0,70,-99.99,,,-99.99,0.050000,,2013-01-24 11:02:00,
2013-01-24 04:32:00,30.0,21.0,-100.00,NNE,16,6.0,6.0,71,-99.99,,,-99.99,0.080000,,2013-01-24 11:32:00,
2013-01-24 04:42:00,31.0,21.0,-100.00,NNE,22,8.0,8.0,66,-99.99,,,-99.99,0.000000,,2013-01-24 11:42:00,
2013-01-24 05:02:00,32.0,22.0,-100.00,NE,43,4.0,5.0,66,-99.99,,,-99.99,0.000000,,2013-01-24 12:02:00,
2013-01-24 05:42:00,36.0,23.0,-100.00,NE,55,5.0,5.0,58,-99.99,,,-99.99,0.000000,,2013-01-24 12:42:00,
2013-01-24 05:52:00,36.0,23.0,-100.00,NE,55,5.0,5.0,58,-99.99,,,-99.99,0.000000,,2013-01-24 12:52:00,
2013-01-24 06:12:00,30.0,23.0,-100.00,ESE,107,5.0,7.0,74,-99.99,,,-99.99,0.020000,,2013-01-24 13:12:00,
2013-01-24 06:22:00,30.0,23.0,-100.00,ESE,107,5.0,7.0,74,-99.99,,,-99.99,0.020000,,2013-01-24 13:22:00,
2013-01-24 06:32:00,31.0,23.0,-100.00,NW,315,4.0,7.0,70,-99.99,,,-99.99,0.090000,,2013-01-24 13:32:00,
2013-01-24 06:42:00,34.0,24.0,-100.00,West,267,4.0,7.0,65,-99.99,,,-99.99,0.000000,,2013-01-24 13:42:00,
2013-01-24 06:52:00,34.0,24.0,-100.00,West,267,4.0,7.0,65,-99.99,,,-99.99,0.000000,,2013-01-24 13:52:00,
2013-01-24 07:22:00,34.0,25.0,-100.00,SW,234,3.0,7.0,69,-99.99,,,-99.99,0.000000,,2013-01-24 14:22:00,
2013-01-24 07:33:00,36.0,26.0,-100.00,SW,229,5.0,7.0,67,-99.99,,,-99.99,0.120000,,2013-01-24 14:33:00,
2013-01-24 07:42:00,37.0,29.0,-100.00,SE,135,5.0,5.0,71,-99.99,,,-99.99,2.050000,,2013-01-24 14:42:00,
2013-01-24 08:12:00,36.0,29.0,-100.00,NE,35,1.0,3.0,76,-99.99,,,-99.99,8.850000,,2013-01-24 15:12:00,
2013-01-24 08:22:00,35.0,29.0,-100.00,WNW,303,2.0,2.0,78,-99.99,,,-99.99,11.120000,,2013-01-24 15:22:00,
2013-01-24 08:42:00,36.0,32.0,-100.00,SSW,202,4.0,5.0,84,-99.99,,,-99.99,15.090000,,2013-01-24 15:42:00,
2013-01-24 09:02:00,37.0,33.0,-100.00,South,179,2.0,3.0,86,-99.99,,,-99.99,21.850000,,2013-01-24 16:02:00,
2013-01-24 09:12:00,37.0,33.0,-100.00,South,179,2.0,3.0,86,-99.99,,,-99.99,21.850000,,2013-01-24 16:12:00,
2013-01-24 09:22:00,37.0,33.0,-100.00,South,179,2.0,3.0,86,-99.99,,,-99.99,21.850000,,2013-01-24 16:22:00,
2013-01-24 09:42:00,37.0,34.0,-100.00,South,171,4.0,9.0,88,-99.99,,,-99.99,29.290001,,2013-01-24 16:42:00,
2013-01-24 10:01:00,38.0,35.0,-100.00,South,181,4.0,6.0,88,-99.99,,,-99.99,95.900002,,2013-01-24 17:01:00,
2013-01-24 10:31:00,39.0,36.0,-100.00,SSW,195,3.0,5.0,89,-99.99,,,-99.99,112.400002,,2013-01-24 17:31:00,
2013-01-24 10:42:00,38.0,35.0,-100.00,South,174,3.0,4.0,87,-99.99,,,-99.99,106.599998,,2013-01-24 17:42:00,
2013-01-24 11:11:00,38.0,35.0,-100.00,SE,144,3.0,4.0,89,-99.99,,,-99.99,147.300003,,2013-01-24 18:11:00,
2013-01-24 11:22:00,38.0,35.0,-100.00,SE,144,3.0,4.0,89,-99.99,,,-99.99,147.300003,,2013-01-24 18:22:00,
2013-01-24 11:52:00,39.0,36.0,-100.00,SE,140,3.0,4.0,88,-99.99,,,-99.99,176.699997,,2013-01-24 18:52:00,
2013-01-24 12:01:00,39.0,36.0,-100.00,South,169,4.0,5.0,88,-99.99,,,-99.99,156.000000,,2013-01-24 19:01:00,
2013-01-24 12:12:00,39.0,36.0,-100.00,SSE,154,5.0,6.0,87,-99.99,,,-99.99,162.699997,,2013-01-24 19:12:00,
2013-01-24 12:21:00,39.0,36.0,-100.00,SSE,154,5.0,6.0,87,-99.99,,,-99.99,162.699997,,2013-01-24 19:21:00,
2013-01-24 13:32:00,42.0,37.0,-100.00,SSW,192,4.0,4.0,82,-99.99,,,-99.99,318.600006,,2013-01-24 20:32:00,
2013-01-24 13:42:00,42.0,37.0,-100.00,SSW,192,4.0,4.0,82,-99.99,,,-99.99,318.600006,,2013-01-24 20:42:00,
2013-01-24 13:52:00,41.0,36.0,-100.00,South,170,6.0,6.0,81,-99.99,,,-99.99,274.299988,,2013-01-24 20:52:00,
2013-01-24 14:02:00,40.0,36.0,-100.00,South,173,6.0,6.0,83,-99.99,,,-99.99,227.300003,,2013-01-24 21:02:00,
2013-01-24 14:11:00,41.0,36.0,-100.00,SSE,168,3.0,6.0,82,-99.99,,,-99.99,223.399994,,2013-01-24 21:11:00,
2013-01-24 14:22:00,41.0,36.0,-100.00,SSE,168,3.0,6.0,82,-99.99,,,-99.99,223.399994,,2013-01-24 21:22:00,
2013-01-24 15:32:00,39.0,33.0,-100.00,South,180,8.0,10.0,80,-99.99,,,-99.99,103.800003,,2013-01-24 22:32:00,
2013-01-24 16:01:00,38.0,34.0,-100.00,SE,141,6.0,10.0,82,-99.99,,,-99.99,80.599998,,2013-01-24 23:01:00,
2013-01-24 16:32:00,39.0,34.0,-100.00,SE,145,11.0,13.0,81,-99.99,,,-99.99,54.090000,,2013-01-24 23:32:00,
2013-01-24 16:52:00,38.0,33.0,-100.00,SSE,161,5.0,6.0,83,-99.99,,,-99.99,30.660000,,2013-01-24 23:52:00,
2013-01-24 17:12:00,38.0,33.0,-100.00,SW,235,3.0,6.0,84,-99.99,,,-99.99,19.840000,,2013-01-25 00:12:00,
2013-01-24 17:21:00,38.0,33.0,-100.00,ESE,107,2.0,3.0,83,-99.99,,,-99.99,15.200000,,2013-01-25 00:21:00,
2013-01-24 17:41:00,37.0,33.0,-100.00,WNW,300,3.0,3.0,85,-99.99,,,-99.99,3.300000,,2013-01-25 00:41:00,
2013-01-24 18:01:00,37.0,33.0,-100.00,NNE,16,4.0,4.0,86,-99.99,,,-99.99,1.170000,,2013-01-25 01:01:00,
2013-01-24 18:31:00,36.0,33.0,-100.00,NNW,340,3.0,4.0,88,-99.99,,,-99.99,0.000000,,2013-01-25 01:31:00,
2013-01-24 18:51:00,36.0,33.0,-100.00,North,5,1.0,4.0,88,-99.99,,,-99.99,0.000000,,2013-01-25 01:51:00,
2013-01-24 19:01:00,36.0,33.0,-100.00,NNE,23,2.0,2.0,89,-99.99,,,-99.99,0.000000,,2013-01-25 02:01:00,
2013-01-24 19:21:00,36.0,33.0,-100.00,NNW,333,2.0,3.0,90,-99.99,,,-99.99,0.000000,,2013-01-25 02:21:00,
2013-01-24 19:42:00,36.0,33.0,-100.00,NNE,31,4.0,4.0,89,-99.99,,,-99.99,0.000000,,2013-01-25 02:42:00,
2013-01-24 20:01:00,35.0,33.0,-100.00,WSW,238,2.0,4.0,90,-99.99,,,-99.99,0.000000,,2013-01-25 03:01:00,
2013-01-24 20:21:00,36.0,33.0,-100.00,NNE,22,1.0,2.0,90,-99.99,,,-99.99,0.000000,,2013-01-25 03:21:00,
2013-01-24 21:01:00,35.0,33.0,-100.00,NE,43,0.0,1.0,89,-99.99,,,-99.99,0.000000,,2013-01-25 04:01:00,
2013-01-24 21:31:00,35.0,33.0,-100.00,North,6,1.0,2.0,91,-99.99,,,-99.99,0.000000,,2013-01-25 04:31:00,
2013-01-24 21:51:00,35.0,33.0,-100.00,North,9,1.0,2.0,91,-99.99,,,-99.99,0.000000,,2013-01-25 04:51:00,
2013-01-24 22:12:00,35.0,33.0,-100.00,North,10,3.0,3.0,92,-99.99,,,-99.99,0.000000,,2013-01-25 05:12:00,
2013-01-24 22:22:00,35.0,33.0,-100.00,North,10,3.0,3.0,92,-99.99,,,-99.99,0.000000,,2013-01-25 05:22:00,
2013-01-24 22:30:00,34.0,32.0,-100.00,NNW,333,1.0,3.0,92,-99.99,,,-99.99,0.000000,,2013-01-25 05:30:00,
2013-01-24 22:32:00,34.0,33.0,-100.00,NNE,29,5.0,5.0,93,-99.99,,,-99.99,0.000000,,2013-01-25 05:32:00,
2013-01-24 22:42:00,34.0,33.0,-100.00,NE,34,4.0,4.0,93,-99.99,,,-99.99,0.000000,,2013-01-25 05:42:00,
2013-01-24 22:51:00,34.0,33.0,-100.00,NE,34,4.0,4.0,93,-99.99,,,-99.99,0.000000,,2013-01-25 05:51:00,
2013-01-24 23:02:00,34.0,32.0,-100.00,NNW,333,1.0,3.0,92,-99.99,,,-99.99,0.000000,,2013-01-25 06:02:00,
2013-01-24 23:11:00,34.0,32.0,-100.00,NNW,333,1.0,3.0,92,-99.99,,,-99.99,0.000000,,2013-01-25 06:11:00,
2013-01-24 23:21:00,34.0,32.0,-100.00,NNW,333,1.0,3.0,92,-99.99,,,-99.99,0.000000,,2013-01-25 06:21:00,